createdAt,value
2019-03-22T00:00:33.554Z,21.47
2019-03-22T00:01:14.758Z,21.97
2019-03-22T00:01:50.899Z,21.07
2019-03-22T00:02:27.049Z,20.80
2019-03-22T00:03:03.120Z,21.27
2019-03-22T00:03:39.243Z,21.57
2019-03-22T00:04:15.688Z,21.60
2019-03-22T00:04:52.168Z,21.27
2019-03-22T00:05:28.272Z,22.10
2019-03-22T00:06:04.443Z,20.77
2019-03-22T00:06:40.524Z,20.87
2019-03-22T00:07:16.855Z,21.47
2019-03-22T00:07:52.930Z,21.90
2019-03-22T00:08:29.018Z,21.00
2019-03-22T00:09:06.535Z,21.73
2019-03-22T00:09:42.618Z,21.93
2019-03-22T00:10:18.996Z,20.80
2019-03-22T00:10:55.367Z,20.80
2019-03-22T00:11:31.474Z,20.70
2019-03-22T00:12:07.907Z,21.23
2019-03-22T00:12:44.027Z,20.77
2019-03-22T00:13:20.114Z,20.90
2019-03-22T00:13:56.211Z,21.40
2019-03-22T00:14:32.287Z,21.53
2019-03-22T00:15:08.711Z,21.47
2019-03-22T00:15:45.110Z,21.10
2019-03-22T00:16:21.225Z,21.77
2019-03-22T00:16:57.362Z,20.97
2019-03-22T00:17:33.471Z,21.60
2019-03-22T00:18:09.622Z,20.83
2019-03-22T00:18:45.704Z,21.77
2019-03-22T00:19:21.786Z,21.57
2019-03-22T00:19:57.873Z,22.03
2019-03-22T00:20:33.942Z,21.17
2019-03-22T00:21:10.062Z,22.37
2019-03-22T00:21:46.675Z,22.57
2019-03-22T00:22:23.019Z,21.03
2019-03-22T00:22:59.152Z,20.57
2019-03-22T00:23:35.214Z,21.60
2019-03-22T00:24:11.580Z,21.00
2019-03-22T00:24:47.660Z,21.90
2019-03-22T00:25:24.090Z,21.07
2019-03-22T00:26:00.170Z,21.63
2019-03-22T00:26:36.310Z,21.37
2019-03-22T00:27:16.802Z,21.57
2019-03-22T00:27:50.487Z,21.73
2019-03-22T00:28:26.575Z,21.97
2019-03-22T00:29:02.668Z,20.40
2019-03-22T00:29:38.737Z,20.40
2019-03-22T00:30:14.819Z,20.20
2019-03-22T00:30:51.989Z,21.67
2019-03-22T00:31:28.095Z,20.70
2019-03-22T00:32:04.368Z,21.67
2019-03-22T00:32:40.530Z,20.63
2019-03-22T00:33:16.633Z,20.33
2019-03-22T00:33:52.721Z,19.60
2019-03-22T00:34:28.802Z,20.33
2019-03-22T00:35:05.500Z,18.93
2019-03-22T00:35:41.956Z,19.17
2019-03-22T00:36:18.477Z,20.43
2019-03-22T00:36:54.550Z,19.43
2019-03-22T00:37:30.635Z,20.13
2019-03-22T00:38:06.706Z,19.60
2019-03-22T00:38:42.811Z,21.67
2019-03-22T00:39:18.884Z,19.70
2019-03-22T00:39:55.318Z,19.80
2019-03-22T00:40:31.433Z,19.73
2019-03-22T00:41:07.526Z,19.40
2019-03-22T00:41:43.649Z,20.10
2019-03-22T00:42:19.731Z,19.83
2019-03-22T00:42:55.846Z,18.97
2019-03-22T00:43:31.928Z,20.13
2019-03-22T00:44:08.374Z,19.57
2019-03-22T00:44:44.880Z,20.67
2019-03-22T00:45:20.955Z,20.70
2019-03-22T00:45:57.059Z,19.13
2019-03-22T00:46:33.293Z,20.13
2019-03-22T00:47:09.746Z,19.93
2019-03-22T00:47:45.872Z,19.60
2019-03-22T00:48:21.991Z,18.10
2019-03-22T00:48:58.153Z,18.20
2019-03-22T00:49:34.235Z,18.90
2019-03-22T00:50:10.387Z,20.57
2019-03-22T00:50:46.820Z,21.07
2019-03-22T00:51:24.508Z,21.20
2019-03-22T00:52:00.578Z,20.13
2019-03-22T00:52:36.738Z,20.93
2019-03-22T00:53:12.837Z,20.53
2019-03-22T00:53:49.740Z,20.40
2019-03-22T00:54:25.864Z,20.40
2019-03-22T00:55:01.940Z,20.17
2019-03-22T00:55:38.371Z,21.70
2019-03-22T00:56:14.535Z,21.07
2019-03-22T00:56:50.647Z,22.27
2019-03-22T00:57:28.739Z,21.23
2019-03-22T00:58:04.529Z,19.57
2019-03-22T00:58:40.602Z,20.47
2019-03-22T00:59:16.688Z,20.63
2019-03-22T00:59:52.787Z,21.67
2019-03-22T01:00:28.884Z,21.33
2019-03-22T01:01:05.000Z,18.77
2019-03-22T01:01:41.083Z,18.60
2019-03-22T01:02:17.207Z,18.87
2019-03-22T01:02:53.593Z,18.43
2019-03-22T01:03:29.927Z,18.17
2019-03-22T01:04:06.080Z,19.17
2019-03-22T01:04:42.159Z,20.07
2019-03-22T01:05:18.544Z,18.93
2019-03-22T01:05:54.658Z,18.83
2019-03-22T01:06:30.743Z,19.23
2019-03-22T01:07:06.848Z,20.03
2019-03-22T01:07:43.084Z,20.27
2019-03-22T01:08:19.204Z,20.77
2019-03-22T01:08:55.302Z,20.77
2019-03-22T01:09:31.400Z,20.40
2019-03-22T01:10:08.478Z,22.67
2019-03-22T01:10:44.742Z,21.23
2019-03-22T01:11:20.869Z,20.43
2019-03-22T01:11:57.330Z,20.53
2019-03-22T01:12:34.496Z,21.33
2019-03-22T01:13:10.572Z,21.20
2019-03-22T01:13:46.786Z,19.93
2019-03-22T01:14:23.233Z,19.97
2019-03-22T01:14:59.323Z,21.47
2019-03-22T01:15:35.417Z,19.97
2019-03-22T01:16:11.537Z,18.83
2019-03-22T01:16:47.675Z,20.80
2019-03-22T01:17:23.776Z,20.20
2019-03-22T01:17:59.944Z,19.73
2019-03-22T01:18:36.078Z,20.60
2019-03-22T01:19:14.517Z,21.07
2019-03-22T01:19:50.899Z,20.20
2019-03-22T01:20:27.091Z,26.07
2019-03-22T01:21:03.185Z,22.00
2019-03-22T01:21:39.281Z,20.70
2019-03-22T01:22:15.440Z,21.10
2019-03-22T01:22:51.804Z,21.67
2019-03-22T01:23:27.954Z,21.33
2019-03-22T01:24:04.108Z,21.80
2019-03-22T01:24:40.243Z,20.97
2019-03-22T01:25:16.322Z,22.37
2019-03-22T01:25:52.430Z,20.47
2019-03-22T01:26:28.519Z,19.90
2019-03-22T01:27:04.906Z,20.20
2019-03-22T01:27:41.489Z,20.40
2019-03-22T01:28:17.852Z,19.93
2019-03-22T01:28:54.305Z,20.57
2019-03-22T01:29:30.411Z,20.20
2019-03-22T01:30:07.713Z,19.90
2019-03-22T01:30:43.884Z,20.33
2019-03-22T01:31:20.258Z,19.33
2019-03-22T01:31:56.328Z,24.10
2019-03-22T01:32:32.427Z,19.83
2019-03-22T01:33:08.546Z,26.23
2019-03-22T01:33:44.945Z,21.50
2019-03-22T01:34:21.274Z,21.93
2019-03-22T01:34:57.379Z,20.80
2019-03-22T01:35:33.450Z,20.63
2019-03-22T01:36:09.542Z,19.13
2019-03-22T01:36:45.639Z,20.70
2019-03-22T01:37:21.715Z,19.63
2019-03-22T01:37:57.814Z,19.63
2019-03-22T01:38:33.908Z,19.63
2019-03-22T01:39:09.978Z,19.87
2019-03-22T01:39:46.377Z,20.27
2019-03-22T01:40:22.489Z,20.00
2019-03-22T01:40:58.594Z,19.93
2019-03-22T01:41:34.763Z,19.83
2019-03-22T01:42:11.170Z,19.33
2019-03-22T01:42:48.221Z,19.13
2019-03-22T01:43:24.574Z,19.13
2019-03-22T01:44:00.959Z,19.47
2019-03-22T01:44:37.077Z,19.50
2019-03-22T01:45:13.369Z,18.47
2019-03-22T01:45:49.518Z,20.23
2019-03-22T01:46:25.635Z,19.17
2019-03-22T01:47:01.716Z,19.23
2019-03-22T01:47:38.213Z,19.80
2019-03-22T01:48:14.299Z,19.37
2019-03-22T01:48:50.769Z,19.63
2019-03-22T01:49:27.017Z,19.80
2019-03-22T01:50:03.113Z,19.50
2019-03-22T01:50:39.248Z,18.80
2019-03-22T01:51:15.437Z,19.63
2019-03-22T01:51:51.707Z,18.93
2019-03-22T01:52:27.819Z,19.37
2019-03-22T01:53:03.971Z,22.90
2019-03-22T01:53:40.066Z,19.27
2019-03-22T01:54:16.163Z,20.77
2019-03-22T01:54:52.311Z,20.13
2019-03-22T01:55:28.694Z,20.30
2019-03-22T01:56:04.796Z,18.97
2019-03-22T01:56:41.202Z,20.20
2019-03-22T01:57:17.317Z,19.10
2019-03-22T01:57:54.088Z,20.53
2019-03-22T01:58:30.271Z,18.37
2019-03-22T01:59:06.374Z,18.60
2019-03-22T01:59:42.466Z,18.43
2019-03-22T02:00:18.634Z,17.77
2019-03-22T02:00:54.809Z,17.50
2019-03-22T02:01:30.923Z,17.77
2019-03-22T02:02:07.389Z,18.70
2019-03-22T02:02:43.698Z,18.43
2019-03-22T02:03:19.815Z,18.43
2019-03-22T02:03:56.240Z,18.37
2019-03-22T02:04:32.822Z,18.90
2019-03-22T02:05:08.985Z,18.30
2019-03-22T02:05:45.211Z,17.47
2019-03-22T02:06:21.739Z,18.30
2019-03-22T02:06:57.834Z,18.00
2019-03-22T02:07:33.952Z,17.33
2019-03-22T02:08:10.631Z,19.87
2019-03-22T02:08:46.767Z,18.43
2019-03-22T02:09:22.951Z,18.97
2019-03-22T02:09:59.070Z,17.33
2019-03-22T02:10:35.199Z,18.67
2019-03-22T02:11:11.629Z,18.57
2019-03-22T02:11:47.784Z,18.20
2019-03-22T02:12:24.486Z,16.53
2019-03-22T02:13:00.605Z,17.40
2019-03-22T02:13:37.689Z,17.67
2019-03-22T02:14:13.772Z,17.30
2019-03-22T02:14:49.851Z,17.80
2019-03-22T02:15:25.922Z,19.27
2019-03-22T02:16:02.027Z,17.13
2019-03-22T02:16:38.451Z,18.33
2019-03-22T02:17:14.522Z,17.83
2019-03-22T02:17:50.646Z,17.63
2019-03-22T02:18:27.703Z,17.07
2019-03-22T02:19:03.782Z,18.20
2019-03-22T02:19:39.875Z,17.47
2019-03-22T02:20:15.966Z,16.60
2019-03-22T02:20:52.136Z,17.23
2019-03-22T02:21:28.214Z,18.00
2019-03-22T02:22:04.291Z,16.73
2019-03-22T02:22:40.675Z,17.67
2019-03-22T02:23:16.775Z,16.80
2019-03-22T02:23:52.856Z,16.97
2019-03-22T02:24:28.989Z,19.50
2019-03-22T02:25:05.359Z,16.43
2019-03-22T02:25:41.460Z,16.37
2019-03-22T02:26:17.540Z,16.57
2019-03-22T02:26:53.649Z,17.07
2019-03-22T02:27:29.726Z,17.03
2019-03-22T02:28:05.828Z,16.80
2019-03-22T02:28:41.902Z,16.60
2019-03-22T02:29:17.998Z,17.27
2019-03-22T02:29:54.088Z,16.23
2019-03-22T02:30:30.170Z,16.17
2019-03-22T02:31:06.631Z,18.23
2019-03-22T02:31:43.023Z,16.70
2019-03-22T02:32:19.136Z,17.13
2019-03-22T02:32:55.223Z,16.50
2019-03-22T02:33:31.381Z,16.17
2019-03-22T02:34:07.474Z,16.37
2019-03-22T02:34:43.554Z,17.53
2019-03-22T02:35:28.320Z,18.43
2019-03-22T02:35:57.507Z,19.90
2019-03-22T02:36:33.594Z,18.23
2019-03-22T02:37:09.969Z,18.63
2019-03-22T02:37:46.093Z,19.33
2019-03-22T02:38:22.513Z,18.57
2019-03-22T02:38:58.587Z,18.03
2019-03-22T02:39:34.734Z,18.20
2019-03-22T02:40:11.094Z,17.80
2019-03-22T02:40:47.349Z,17.87
2019-03-22T02:41:23.493Z,18.27
2019-03-22T02:41:59.569Z,17.53
2019-03-22T02:42:35.641Z,18.43
2019-03-22T02:43:11.711Z,17.60
2019-03-22T02:43:48.164Z,18.23
2019-03-22T02:44:24.300Z,18.97
2019-03-22T02:45:00.759Z,18.47
2019-03-22T02:45:36.927Z,19.00
2019-03-22T02:46:13.282Z,17.60
2019-03-22T02:46:49.394Z,19.80
2019-03-22T02:47:25.474Z,19.00
2019-03-22T02:48:01.577Z,17.70
2019-03-22T02:48:37.948Z,17.80
2019-03-22T02:49:14.033Z,17.80
2019-03-22T02:49:50.136Z,17.20
2019-03-22T02:50:26.212Z,18.00
2019-03-22T02:51:02.604Z,18.23
2019-03-22T02:51:38.767Z,17.57
2019-03-22T02:52:14.848Z,18.07
2019-03-22T02:52:50.938Z,17.80
2019-03-22T02:53:27.028Z,17.67
2019-03-22T02:54:03.119Z,16.23
2019-03-22T02:54:39.204Z,17.37
2019-03-22T02:55:15.295Z,17.00
2019-03-22T02:55:51.403Z,17.63
2019-03-22T02:56:27.562Z,17.20
2019-03-22T02:57:03.975Z,16.77
2019-03-22T02:57:40.388Z,21.90
2019-03-22T02:58:20.874Z,17.37
2019-03-22T02:58:54.559Z,16.87
2019-03-22T02:59:30.637Z,17.90
2019-03-22T03:00:07.401Z,17.77
2019-03-22T03:00:43.510Z,17.40
2019-03-22T03:01:19.590Z,17.80
2019-03-22T03:01:55.759Z,19.90
2019-03-22T03:02:31.882Z,17.67
2019-03-22T03:03:08.202Z,17.43
2019-03-22T03:03:44.386Z,17.13
2019-03-22T03:04:20.495Z,17.33
2019-03-22T03:04:56.583Z,16.73
2019-03-22T03:05:32.655Z,17.43
2019-03-22T03:06:08.743Z,16.77
2019-03-22T03:06:44.951Z,16.73
2019-03-22T03:07:21.077Z,17.43
2019-03-22T03:07:57.181Z,16.37
2019-03-22T03:08:33.268Z,17.27
2019-03-22T03:09:09.363Z,17.23
2019-03-22T03:09:45.442Z,22.13
2019-03-22T03:10:21.543Z,17.17
2019-03-22T03:10:57.615Z,16.87
2019-03-22T03:11:33.719Z,17.37
2019-03-22T03:12:09.875Z,16.53
2019-03-22T03:12:46.003Z,17.17
2019-03-22T03:13:22.421Z,17.60
2019-03-22T03:13:58.501Z,16.97
2019-03-22T03:14:34.578Z,16.83
2019-03-22T03:15:11.202Z,16.50
2019-03-22T03:15:47.834Z,17.53
2019-03-22T03:16:24.067Z,18.60
2019-03-22T03:17:00.296Z,16.83
2019-03-22T03:17:36.411Z,19.00
2019-03-22T03:18:12.493Z,16.87
2019-03-22T03:18:48.941Z,16.70
2019-03-22T03:19:25.024Z,18.53
2019-03-22T03:20:01.117Z,18.33
2019-03-22T03:20:37.201Z,17.63
2019-03-22T03:21:13.285Z,16.23
2019-03-22T03:21:49.486Z,15.90
2019-03-22T03:22:25.660Z,16.97
2019-03-22T03:23:01.768Z,16.70
2019-03-22T03:23:37.838Z,15.97
2019-03-22T03:24:13.932Z,17.00
2019-03-22T03:24:50.017Z,15.97
2019-03-22T03:25:26.126Z,16.63
2019-03-22T03:26:02.217Z,16.93
2019-03-22T03:26:38.665Z,16.90
2019-03-22T03:27:15.165Z,16.80
2019-03-22T03:27:51.337Z,16.57
2019-03-22T03:28:36.467Z,17.50
2019-03-22T03:29:05.224Z,17.07
2019-03-22T03:29:41.624Z,16.47
2019-03-22T03:30:17.774Z,16.87
2019-03-22T03:30:53.925Z,17.30
2019-03-22T03:31:30.147Z,16.40
2019-03-22T03:32:06.284Z,17.70
2019-03-22T03:32:42.514Z,17.17
2019-03-22T03:33:18.641Z,17.07
2019-03-22T03:33:55.091Z,16.80
2019-03-22T03:34:31.178Z,18.07
2019-03-22T03:35:07.361Z,16.50
2019-03-22T03:35:43.452Z,19.00
2019-03-22T03:36:19.543Z,17.73
2019-03-22T03:36:55.752Z,18.10
2019-03-22T03:37:32.102Z,17.73
2019-03-22T03:38:08.183Z,16.63
2019-03-22T03:38:44.309Z,17.20
2019-03-22T03:39:20.399Z,17.53
2019-03-22T03:39:56.516Z,17.37
2019-03-22T03:40:33.236Z,18.30
2019-03-22T03:41:09.688Z,16.60
2019-03-22T03:41:45.775Z,16.67
2019-03-22T03:42:21.851Z,16.83
2019-03-22T03:42:57.965Z,16.60
2019-03-22T03:43:34.057Z,17.13
2019-03-22T03:44:10.139Z,17.17
2019-03-22T03:44:46.229Z,17.07
2019-03-22T03:45:31.182Z,16.70
2019-03-22T03:46:07.455Z,16.53
2019-03-22T03:46:43.546Z,18.07
2019-03-22T03:47:19.937Z,16.63
2019-03-22T03:47:56.024Z,16.70
2019-03-22T03:48:32.411Z,16.30
2019-03-22T03:49:08.535Z,16.30
2019-03-22T03:49:44.855Z,17.23
2019-03-22T03:50:21.175Z,17.60
2019-03-22T03:50:57.259Z,16.90
2019-03-22T03:51:33.334Z,16.97
2019-03-22T03:52:09.437Z,16.47
2019-03-22T03:52:46.591Z,16.23
2019-03-22T03:53:22.689Z,16.40
2019-03-22T03:53:58.768Z,16.97
2019-03-22T03:54:36.265Z,17.70
2019-03-22T03:55:12.360Z,17.00
2019-03-22T03:55:48.450Z,16.63
2019-03-22T03:56:24.538Z,17.60
2019-03-22T03:57:01.766Z,17.83
2019-03-22T03:57:37.932Z,16.77
2019-03-22T03:58:14.645Z,16.60
2019-03-22T03:58:52.592Z,16.50
2019-03-22T03:59:28.996Z,16.10
2019-03-22T04:00:06.603Z,17.53
2019-03-22T04:00:42.726Z,16.97
2019-03-22T04:01:18.832Z,20.67
2019-03-22T04:01:54.913Z,17.23
2019-03-22T04:02:31.003Z,17.33
2019-03-22T04:03:07.113Z,16.90
2019-03-22T04:03:43.243Z,17.23
2019-03-22T04:04:19.345Z,16.97
2019-03-22T04:04:55.834Z,16.87
2019-03-22T04:05:31.934Z,17.67
2019-03-22T04:06:08.301Z,17.10
2019-03-22T04:06:44.387Z,17.53
2019-03-22T04:07:21.827Z,17.73
2019-03-22T04:07:57.962Z,17.03
2019-03-22T04:08:34.066Z,16.67
2019-03-22T04:09:10.832Z,17.50
2019-03-22T04:09:46.906Z,16.80
2019-03-22T04:10:22.982Z,17.23
2019-03-22T04:10:59.313Z,17.40
2019-03-22T04:11:35.416Z,17.57
2019-03-22T04:12:11.558Z,17.77
2019-03-22T04:12:47.674Z,18.53
2019-03-22T04:13:23.768Z,16.93
2019-03-22T04:14:00.424Z,18.77
2019-03-22T04:14:36.494Z,17.43
2019-03-22T04:15:13.048Z,16.77
2019-03-22T04:15:50.230Z,17.43
2019-03-22T04:16:26.317Z,16.40
2019-03-22T04:17:02.737Z,16.63
2019-03-22T04:17:39.087Z,16.37
2019-03-22T04:18:15.200Z,16.90
2019-03-22T04:18:51.298Z,16.87
2019-03-22T04:19:29.586Z,16.53
2019-03-22T04:20:06.575Z,17.77
2019-03-22T04:20:42.949Z,16.23
2019-03-22T04:21:19.294Z,16.47
2019-03-22T04:21:55.401Z,16.47
2019-03-22T04:22:36.106Z,16.10
2019-03-22T04:23:10.320Z,16.10
2019-03-22T04:23:46.375Z,16.03
2019-03-22T04:24:22.469Z,16.00
2019-03-22T04:24:58.558Z,16.70
2019-03-22T04:25:34.645Z,16.90
2019-03-22T04:26:10.957Z,17.73
2019-03-22T04:26:47.089Z,19.80
2019-03-22T04:27:24.392Z,16.10
2019-03-22T04:28:00.570Z,17.07
2019-03-22T04:28:36.686Z,18.23
2019-03-22T04:29:13.017Z,16.93
2019-03-22T04:29:49.092Z,16.70
2019-03-22T04:30:25.264Z,16.43
2019-03-22T04:31:01.356Z,16.47
2019-03-22T04:31:37.494Z,16.87
2019-03-22T04:32:13.591Z,16.77
2019-03-22T04:32:49.701Z,17.27
2019-03-22T04:33:25.802Z,16.37
2019-03-22T04:34:02.135Z,18.90
2019-03-22T04:34:38.294Z,16.73
2019-03-22T04:35:14.385Z,17.43
2019-03-22T04:35:50.465Z,16.47
2019-03-22T04:36:26.553Z,16.83
2019-03-22T04:37:02.884Z,16.27
2019-03-22T04:37:39.011Z,15.70
2019-03-22T04:38:15.110Z,16.90
2019-03-22T04:38:51.220Z,15.67
2019-03-22T04:39:27.308Z,15.80
2019-03-22T04:40:03.403Z,16.20
2019-03-22T04:40:39.500Z,16.60
2019-03-22T04:41:15.687Z,16.60
2019-03-22T04:41:51.867Z,15.53
2019-03-22T04:42:28.236Z,17.10
2019-03-22T04:43:04.330Z,15.80
2019-03-22T04:43:40.428Z,15.70
2019-03-22T04:44:16.499Z,18.97
2019-03-22T04:44:52.587Z,15.93
2019-03-22T04:45:30.094Z,16.00
2019-03-22T04:46:06.478Z,16.50
2019-03-22T04:46:42.565Z,16.47
2019-03-22T04:47:19.004Z,15.43
2019-03-22T04:47:59.783Z,16.47
2019-03-22T04:48:35.893Z,16.10
2019-03-22T04:49:12.084Z,16.43
2019-03-22T04:49:48.221Z,16.27
2019-03-22T04:50:24.618Z,15.53
2019-03-22T04:51:00.786Z,16.43
2019-03-22T04:51:36.894Z,16.37
2019-03-22T04:52:12.974Z,16.23
2019-03-22T04:52:49.059Z,18.80
2019-03-22T04:53:25.159Z,15.87
2019-03-22T04:54:01.425Z,17.17
2019-03-22T04:54:37.871Z,16.17
2019-03-22T04:55:13.957Z,17.47
2019-03-22T04:55:53.665Z,18.23
2019-03-22T04:56:30.186Z,17.20
2019-03-22T04:57:06.305Z,16.93
2019-03-22T04:57:42.639Z,18.83
2019-03-22T04:58:18.853Z,16.10
2019-03-22T04:58:54.945Z,16.00
2019-03-22T04:59:32.014Z,15.63
2019-03-22T05:00:08.790Z,15.40
2019-03-22T05:00:44.863Z,15.40
2019-03-22T05:01:21.638Z,14.90
2019-03-22T05:01:57.727Z,14.90
2019-03-22T05:02:34.186Z,15.17
2019-03-22T05:03:10.284Z,14.90
2019-03-22T05:03:46.396Z,15.07
2019-03-22T05:04:23.029Z,15.13
2019-03-22T05:04:59.126Z,15.17
2019-03-22T05:05:35.226Z,14.40
2019-03-22T05:06:11.601Z,14.27
2019-03-22T05:06:47.688Z,15.07
2019-03-22T05:07:23.775Z,15.63
2019-03-22T05:07:59.855Z,15.50
2019-03-22T05:08:36.002Z,14.97
2019-03-22T05:09:13.082Z,16.47
2019-03-22T05:09:49.516Z,17.27
2019-03-22T05:10:25.599Z,14.93
2019-03-22T05:11:02.038Z,15.97
2019-03-22T05:11:38.551Z,18.37
2019-03-22T05:12:14.641Z,15.47
2019-03-22T05:12:50.759Z,15.30
2019-03-22T05:13:26.841Z,15.70
2019-03-22T05:14:02.939Z,15.70
2019-03-22T05:14:39.485Z,15.17
2019-03-22T05:15:15.633Z,15.47
2019-03-22T05:15:51.802Z,15.73
2019-03-22T05:16:27.891Z,15.93
2019-03-22T05:17:04.046Z,15.23
2019-03-22T05:17:40.138Z,15.70
2019-03-22T05:18:16.241Z,15.57
2019-03-22T05:18:52.380Z,15.17
2019-03-22T05:19:28.484Z,16.60
2019-03-22T05:20:05.171Z,15.57
2019-03-22T05:20:41.276Z,15.43
2019-03-22T05:21:17.450Z,15.37
2019-03-22T05:21:53.544Z,15.47
2019-03-22T05:22:29.926Z,14.37
2019-03-22T05:23:06.377Z,15.53
2019-03-22T05:23:42.836Z,15.90
2019-03-22T05:24:18.926Z,15.93
2019-03-22T05:24:55.036Z,14.93
2019-03-22T05:25:31.156Z,15.37
2019-03-22T05:26:07.283Z,18.03
2019-03-22T05:26:43.734Z,15.57
2019-03-22T05:27:19.818Z,14.93
2019-03-22T05:27:55.916Z,17.83
2019-03-22T05:28:32.991Z,15.73
2019-03-22T05:29:09.085Z,16.40
2019-03-22T05:29:45.746Z,16.20
2019-03-22T05:31:03.529Z,16.90
2019-03-22T05:31:58.484Z,17.33
2019-03-22T05:32:34.571Z,15.80
2019-03-22T05:33:10.646Z,18.00
2019-03-22T05:33:46.737Z,17.27
2019-03-22T05:34:22.832Z,15.63
2019-03-22T05:34:58.938Z,16.60
2019-03-22T05:35:35.043Z,16.57
2019-03-22T05:36:12.214Z,16.50
2019-03-22T05:36:48.334Z,16.47
2019-03-22T05:37:25.110Z,16.00
2019-03-22T05:38:01.170Z,15.77
2019-03-22T05:38:37.348Z,17.00
2019-03-22T05:39:13.435Z,16.13
2019-03-22T05:39:49.583Z,16.23
2019-03-22T05:40:25.670Z,16.37
2019-03-22T05:41:01.838Z,16.80
2019-03-22T05:41:38.222Z,15.73
2019-03-22T05:42:14.306Z,15.60
2019-03-22T05:42:50.715Z,15.57
2019-03-22T05:43:26.864Z,16.33
2019-03-22T05:44:03.547Z,15.90
2019-03-22T05:44:40.010Z,15.87
2019-03-22T05:45:16.131Z,16.53
2019-03-22T05:45:52.279Z,16.27
2019-03-22T05:46:28.365Z,15.70
2019-03-22T05:47:04.567Z,16.13
2019-03-22T05:47:40.945Z,16.83
2019-03-22T05:48:17.040Z,16.80
2019-03-22T05:48:53.128Z,16.10
2019-03-22T05:49:29.216Z,16.47
2019-03-22T05:50:05.598Z,16.73
2019-03-22T05:50:42.026Z,17.33
2019-03-22T05:51:18.119Z,17.27
2019-03-22T05:51:54.475Z,16.70
2019-03-22T05:52:31.301Z,17.10
2019-03-22T05:53:07.379Z,18.73
2019-03-22T05:53:43.758Z,19.90
2019-03-22T05:54:19.858Z,18.13
2019-03-22T05:54:55.975Z,18.17
2019-03-22T05:55:32.039Z,17.20
2019-03-22T05:56:08.187Z,18.37
2019-03-22T05:56:44.288Z,18.17
2019-03-22T05:57:20.399Z,18.10
2019-03-22T05:57:56.487Z,19.67
2019-03-22T05:58:32.593Z,19.07
2019-03-22T05:59:08.662Z,18.90
2019-03-22T05:59:44.771Z,18.40
2019-03-22T06:00:20.864Z,19.07
2019-03-22T06:00:56.958Z,18.67
2019-03-22T06:01:33.315Z,18.30
2019-03-22T06:02:09.416Z,18.73
2019-03-22T06:02:45.541Z,18.30
2019-03-22T06:03:21.721Z,19.17
2019-03-22T06:03:57.860Z,18.27
2019-03-22T06:04:34.007Z,18.43
2019-03-22T06:05:10.190Z,18.53
2019-03-22T06:05:46.306Z,19.20
2019-03-22T06:06:22.397Z,17.73
2019-03-22T06:06:58.488Z,19.77
2019-03-22T06:07:36.979Z,18.33
2019-03-22T06:08:12.368Z,18.53
2019-03-22T06:08:48.461Z,18.60
2019-03-22T06:09:25.918Z,18.77
2019-03-22T06:10:02.970Z,18.90
2019-03-22T06:10:39.105Z,19.63
2019-03-22T06:11:15.513Z,19.30
2019-03-22T06:11:51.613Z,17.73
2019-03-22T06:12:27.696Z,18.07
2019-03-22T06:13:05.352Z,19.07
2019-03-22T06:13:44.144Z,19.43
2019-03-22T06:14:19.297Z,19.07
2019-03-22T06:14:55.742Z,18.93
2019-03-22T06:15:31.866Z,20.73
2019-03-22T06:16:07.957Z,20.77
2019-03-22T06:16:44.072Z,19.17
2019-03-22T06:17:20.167Z,21.47
2019-03-22T06:17:56.252Z,21.33
2019-03-22T06:18:32.780Z,21.57
2019-03-22T06:19:10.186Z,21.53
2019-03-22T06:19:46.288Z,21.67
2019-03-22T06:20:22.669Z,22.27
2019-03-22T06:20:58.775Z,20.93
2019-03-22T06:21:34.861Z,22.20
2019-03-22T06:22:10.954Z,21.53
2019-03-22T06:22:47.047Z,22.33
2019-03-22T06:23:23.189Z,22.87
2019-03-22T06:23:59.316Z,21.33
2019-03-22T06:24:35.398Z,22.03
2019-03-22T06:25:12.489Z,21.30
2019-03-22T06:25:48.715Z,21.23
2019-03-22T06:26:24.821Z,20.00
2019-03-22T06:27:00.922Z,20.70
2019-03-22T06:27:37.032Z,20.70
2019-03-22T06:28:13.148Z,21.80
2019-03-22T06:28:49.240Z,21.37
2019-03-22T06:29:25.424Z,20.73
2019-03-22T06:30:01.523Z,20.00
2019-03-22T06:30:37.611Z,20.37
2019-03-22T06:31:13.707Z,20.13
2019-03-22T06:31:49.823Z,21.47
2019-03-22T06:32:25.926Z,20.57
2019-03-22T06:33:02.339Z,22.10
2019-03-22T06:33:38.414Z,20.93
2019-03-22T06:34:14.779Z,21.10
2019-03-22T06:34:50.928Z,21.03
2019-03-22T06:35:27.011Z,21.93
2019-03-22T06:36:03.381Z,20.40
2019-03-22T06:36:39.485Z,21.43
2019-03-22T06:37:15.588Z,20.67
2019-03-22T06:37:51.717Z,21.10
2019-03-22T06:38:28.083Z,22.33
2019-03-22T06:39:06.211Z,23.80
2019-03-22T06:39:42.290Z,22.47
2019-03-22T06:40:18.743Z,21.43
2019-03-22T06:40:54.823Z,21.87
2019-03-22T06:41:31.255Z,22.20
2019-03-22T06:42:07.650Z,22.07
2019-03-22T06:42:43.758Z,22.30
2019-03-22T06:43:19.895Z,20.47
2019-03-22T06:43:56.113Z,20.43
2019-03-22T06:44:32.249Z,21.77
2019-03-22T06:45:08.341Z,20.07
2019-03-22T06:45:44.774Z,20.97
2019-03-22T06:46:20.862Z,21.67
2019-03-22T06:46:56.961Z,21.10
2019-03-22T06:47:33.061Z,21.20
2019-03-22T06:48:10.098Z,20.17
2019-03-22T06:48:46.186Z,21.33
2019-03-22T06:49:22.460Z,20.80
2019-03-22T06:49:58.553Z,20.33
2019-03-22T06:50:34.641Z,21.07
2019-03-22T06:51:10.759Z,20.27
2019-03-22T06:51:46.849Z,20.50
2019-03-22T06:52:23.196Z,20.43
2019-03-22T06:52:59.278Z,20.53
2019-03-22T06:53:35.363Z,20.83
2019-03-22T06:54:11.738Z,20.43
2019-03-22T06:54:48.177Z,20.53
2019-03-22T06:55:24.264Z,21.17
2019-03-22T06:56:00.338Z,21.10
2019-03-22T06:56:36.439Z,21.00
2019-03-22T06:57:12.599Z,21.20
2019-03-22T06:57:49.028Z,20.53
2019-03-22T06:58:26.393Z,20.40
2019-03-22T06:59:02.476Z,20.97
2019-03-22T06:59:38.806Z,20.43
2019-03-22T07:00:14.996Z,21.57
2019-03-22T07:00:51.138Z,21.67
2019-03-22T07:01:27.245Z,20.83
2019-03-22T07:02:03.318Z,21.83
2019-03-22T07:02:39.948Z,20.33
2019-03-22T07:03:17.114Z,21.60
2019-03-22T07:03:53.235Z,21.33
2019-03-22T07:04:29.690Z,22.20
2019-03-22T07:05:07.046Z,21.30
2019-03-22T07:05:43.154Z,20.43
2019-03-22T07:06:19.295Z,22.20
2019-03-22T07:06:55.386Z,21.70
2019-03-22T07:07:31.556Z,22.73
2019-03-22T07:08:07.988Z,25.87
2019-03-22T07:08:44.223Z,23.13
2019-03-22T07:09:21.405Z,24.07
2019-03-22T07:09:57.525Z,23.63
2019-03-22T07:10:33.599Z,23.40
2019-03-22T07:11:09.934Z,24.23
2019-03-22T07:11:46.070Z,27.73
2019-03-22T07:12:22.204Z,26.50
2019-03-22T07:12:58.655Z,28.90
2019-03-22T07:13:35.183Z,26.10
2019-03-22T07:14:11.294Z,26.43
2019-03-22T07:14:47.455Z,25.10
2019-03-22T07:15:23.651Z,26.67
2019-03-22T07:15:59.726Z,26.20
2019-03-22T07:16:36.068Z,30.67
2019-03-22T07:17:12.169Z,27.23
2019-03-22T07:17:48.268Z,27.17
2019-03-22T07:18:24.359Z,30.57
2019-03-22T07:19:00.553Z,27.27
2019-03-22T07:19:37.051Z,30.27
2019-03-22T07:20:13.173Z,26.90
2019-03-22T07:20:49.570Z,27.07
2019-03-22T07:21:26.046Z,28.63
2019-03-22T07:22:02.498Z,28.67
2019-03-22T07:22:38.588Z,27.33
2019-03-22T07:23:14.713Z,25.77
2019-03-22T07:23:51.240Z,27.13
2019-03-22T07:24:27.320Z,26.13
2019-03-22T07:25:03.503Z,25.37
2019-03-22T07:25:39.604Z,25.20
2019-03-22T07:26:16.073Z,24.13
2019-03-22T07:26:52.196Z,26.80
2019-03-22T07:27:28.601Z,26.30
2019-03-22T07:28:04.679Z,27.93
2019-03-22T07:28:40.864Z,28.20
2019-03-22T07:29:16.942Z,24.83
2019-03-22T07:29:53.056Z,23.40
2019-03-22T07:30:29.154Z,25.27
2019-03-22T07:31:05.263Z,25.90
2019-03-22T07:31:41.727Z,24.10
2019-03-22T07:32:17.818Z,25.03
2019-03-22T07:32:53.898Z,23.93
2019-03-22T07:33:30.342Z,25.60
2019-03-22T07:34:06.419Z,25.43
2019-03-22T07:34:43.908Z,25.97
2019-03-22T07:35:19.989Z,24.23
2019-03-22T07:35:56.487Z,25.03
2019-03-22T07:36:32.673Z,25.40
2019-03-22T07:37:08.759Z,29.87
2019-03-22T07:37:44.857Z,23.20
2019-03-22T07:38:21.187Z,22.83
2019-03-22T07:38:57.271Z,27.17
2019-03-22T07:39:33.652Z,23.60
2019-03-22T07:40:09.810Z,24.40
2019-03-22T07:40:45.919Z,24.30
2019-03-22T07:41:22.281Z,24.53
2019-03-22T07:41:58.355Z,25.17
2019-03-22T07:42:34.471Z,23.20
2019-03-22T07:43:10.580Z,23.90
2019-03-22T07:43:46.652Z,23.97
2019-03-22T07:44:24.000Z,23.07
2019-03-22T07:45:00.425Z,23.97
2019-03-22T07:45:37.545Z,26.80
2019-03-22T07:46:13.621Z,24.60
2019-03-22T07:46:50.020Z,23.40
2019-03-22T07:47:26.727Z,24.20
2019-03-22T07:48:02.807Z,23.90
2019-03-22T07:48:38.906Z,26.03